createdAt,value
2019-02-03T00:00:59.926Z,40.00
2019-02-03T00:02:00.004Z,41.70
2019-02-03T00:03:00.092Z,38.70
2019-02-03T00:04:00.189Z,39.70
2019-02-03T00:05:00.337Z,39.50
2019-02-03T00:06:00.358Z,38.40
2019-02-03T00:07:03.461Z,40.10
2019-02-03T00:08:00.528Z,38.00
2019-02-03T00:09:00.613Z,39.30
2019-02-03T00:10:00.718Z,39.90
2019-02-03T00:11:00.793Z,38.20
2019-02-03T00:12:00.889Z,38.00
2019-02-03T00:13:00.970Z,37.30
2019-02-03T00:14:01.054Z,38.00
2019-02-03T00:15:01.142Z,38.90
2019-02-03T00:16:01.231Z,40.80
2019-02-03T00:17:01.326Z,41.20
2019-02-03T00:18:01.404Z,41.30
2019-02-03T00:19:01.491Z,38.70
2019-02-03T00:20:01.583Z,39.00
2019-02-03T00:21:01.685Z,41.00
2019-02-03T00:22:01.774Z,40.50
2019-02-03T00:23:01.850Z,41.10
2019-02-03T00:24:01.937Z,41.00
2019-02-03T00:25:02.025Z,40.90
2019-02-03T00:26:02.105Z,42.10
2019-02-03T00:27:02.197Z,42.00
2019-02-03T00:28:02.284Z,40.20
2019-02-03T00:29:02.371Z,44.10
2019-02-03T00:30:02.459Z,42.90
2019-02-03T00:31:02.545Z,42.70
2019-02-03T00:32:02.632Z,43.30
2019-02-03T00:33:02.726Z,43.40
2019-02-03T00:34:02.817Z,45.30
2019-02-03T00:35:02.898Z,44.90
2019-02-03T00:36:02.991Z,44.00
2019-02-03T00:37:14.770Z,44.80
2019-02-03T00:38:03.248Z,46.40
2019-02-03T00:39:03.251Z,46.20
2019-02-03T00:40:03.408Z,52.20
2019-02-03T00:41:03.472Z,47.80
2019-02-03T00:42:03.510Z,47.80
2019-02-03T00:43:03.603Z,48.50
2019-02-03T00:44:03.691Z,49.30
2019-02-03T00:45:03.777Z,52.50
2019-02-03T00:46:03.864Z,53.50
2019-02-03T00:47:03.951Z,52.80
2019-02-03T00:48:04.042Z,51.60
2019-02-03T00:49:04.133Z,48.30
2019-02-03T00:50:04.215Z,52.30
2019-02-03T00:51:04.303Z,50.20
2019-02-03T00:52:04.386Z,52.60
2019-02-03T00:53:04.475Z,54.90
2019-02-03T00:54:04.563Z,55.60
2019-02-03T00:55:04.648Z,53.80
2019-02-03T00:56:04.738Z,52.90
2019-02-03T00:57:04.818Z,55.50
2019-02-03T00:58:04.894Z,56.30
2019-02-03T00:59:04.997Z,54.40
2019-02-03T01:00:05.084Z,55.50
2019-02-03T01:01:05.161Z,55.00
2019-02-03T01:02:05.261Z,57.40
2019-02-03T01:03:05.346Z,54.30
2019-02-03T01:04:05.450Z,58.90
2019-02-03T01:05:05.535Z,54.60
2019-02-03T01:06:05.632Z,54.20
2019-02-03T01:07:05.712Z,55.40
2019-02-03T01:08:05.802Z,57.80
2019-02-03T01:09:05.886Z,54.40
2019-02-03T01:10:05.982Z,58.30
2019-02-03T01:11:06.060Z,58.70
2019-02-03T01:12:06.147Z,57.40
2019-02-03T01:13:06.240Z,60.20
2019-02-03T01:14:06.325Z,55.20
2019-02-03T01:15:06.411Z,56.70
2019-02-03T01:16:06.498Z,59.80
2019-02-03T01:17:06.592Z,58.50
2019-02-03T01:18:06.679Z,54.30
2019-02-03T01:19:06.765Z,57.90
2019-02-03T01:20:06.856Z,57.60
2019-02-03T01:21:06.942Z,56.50
2019-02-03T01:22:07.030Z,57.90
2019-02-03T01:23:07.127Z,54.10
2019-02-03T01:24:07.202Z,56.30
2019-02-03T01:25:07.287Z,55.80
2019-02-03T01:26:07.372Z,53.90
2019-02-03T01:27:07.464Z,59.20
2019-02-03T01:28:07.549Z,56.20
2019-02-03T01:29:07.638Z,57.10
2019-02-03T01:30:07.737Z,55.50
2019-02-03T01:31:07.816Z,57.10
2019-02-03T01:32:07.902Z,53.70
2019-02-03T01:33:07.988Z,54.00
2019-02-03T01:34:08.077Z,58.00
2019-02-03T01:35:08.163Z,56.90
2019-02-03T01:36:08.250Z,61.80
2019-02-03T01:37:08.341Z,60.00
2019-02-03T01:38:08.426Z,59.00
2019-02-03T01:39:08.514Z,58.10
2019-02-03T01:40:08.602Z,60.40
2019-02-03T01:41:08.687Z,61.50
2019-02-03T01:42:08.773Z,61.90
2019-02-03T01:43:08.858Z,63.90
2019-02-03T01:44:08.945Z,65.20
2019-02-03T01:45:09.029Z,67.20
2019-02-03T01:46:09.121Z,69.60
2019-02-03T01:47:09.205Z,71.70
2019-02-03T01:48:09.290Z,72.20
2019-02-03T01:49:09.376Z,68.80
2019-02-03T01:50:09.471Z,72.70
2019-02-03T01:51:09.557Z,77.40
2019-02-03T01:52:09.647Z,78.40
2019-02-03T01:53:09.731Z,75.20
2019-02-03T01:54:09.821Z,78.70
2019-02-03T01:55:09.910Z,81.00
2019-02-03T01:56:09.989Z,79.00
2019-02-03T01:57:10.084Z,80.60
2019-02-03T01:58:10.181Z,84.10
2019-02-03T01:59:10.273Z,78.80
2019-02-03T02:00:10.357Z,86.60
2019-02-03T02:01:10.446Z,82.40
2019-02-03T02:02:10.534Z,78.80
2019-02-03T02:03:10.629Z,83.70
2019-02-03T02:04:10.715Z,79.90
2019-02-03T02:05:10.911Z,73.20
2019-02-03T02:06:10.886Z,77.30
2019-02-03T02:07:10.971Z,79.40
2019-02-03T02:08:11.059Z,72.80
2019-02-03T02:09:11.146Z,75.60
2019-02-03T02:10:11.234Z,72.20
2019-02-03T02:11:11.322Z,74.00
2019-02-03T02:12:11.401Z,67.60
2019-02-03T02:13:11.486Z,62.50
2019-02-03T02:14:11.570Z,64.50
2019-02-03T02:15:11.656Z,68.30
2019-02-03T02:16:11.755Z,67.50
2019-02-03T02:17:11.835Z,62.10
2019-02-03T02:18:11.919Z,70.50
2019-02-03T02:19:12.003Z,65.90
2019-02-03T02:20:12.092Z,64.00
2019-02-03T02:21:12.180Z,62.90
2019-02-03T02:22:12.270Z,66.40
2019-02-03T02:23:12.353Z,65.70
2019-02-03T02:24:12.444Z,63.20
2019-02-03T02:25:12.536Z,62.60
2019-02-03T02:26:12.616Z,57.20
2019-02-03T02:27:12.704Z,56.40
2019-02-03T02:28:12.785Z,57.90
2019-02-03T02:29:12.874Z,52.40
2019-02-03T02:30:12.963Z,57.80
2019-02-03T02:31:13.049Z,57.10
2019-02-03T02:32:13.150Z,56.40
2019-02-03T02:33:13.231Z,55.10
2019-02-03T02:34:13.313Z,54.80
2019-02-03T02:35:13.410Z,58.40
2019-02-03T02:36:13.483Z,58.40
2019-02-03T02:37:13.569Z,55.70
2019-02-03T02:38:13.657Z,59.80
2019-02-03T02:39:13.741Z,57.80
2019-02-03T02:40:13.830Z,58.10
2019-02-03T02:41:13.924Z,55.50
2019-02-03T02:42:14.004Z,57.50
2019-02-03T02:43:14.090Z,62.40
2019-02-03T02:44:14.175Z,56.90
2019-02-03T02:45:14.258Z,57.60
2019-02-03T02:46:14.344Z,56.30
2019-02-03T02:47:14.430Z,58.10
2019-02-03T02:48:14.530Z,55.70
2019-02-03T02:49:14.615Z,58.50
2019-02-03T02:50:14.695Z,59.70
2019-02-03T02:51:14.792Z,58.00
2019-02-03T02:52:14.872Z,62.50
2019-02-03T02:53:14.958Z,61.20
2019-02-03T02:54:15.049Z,61.20
2019-02-03T02:55:15.289Z,61.10
2019-02-03T02:56:15.237Z,60.30
2019-02-03T02:57:15.326Z,62.00
2019-02-03T02:58:15.414Z,56.70
2019-02-03T02:59:15.506Z,60.00
2019-02-03T03:00:17.434Z,56.40
2019-02-03T03:01:15.674Z,58.40
2019-02-03T03:02:15.766Z,58.10
2019-02-03T03:03:15.857Z,58.70
2019-02-03T03:04:15.939Z,59.90
2019-02-03T03:05:16.026Z,61.60
2019-02-03T03:06:16.120Z,58.40
2019-02-03T03:07:16.199Z,59.60
2019-02-03T03:08:19.201Z,57.40
2019-02-03T03:09:16.372Z,61.60
2019-02-03T03:10:16.460Z,61.20
2019-02-03T03:11:16.545Z,63.30
2019-02-03T03:12:16.628Z,65.60
2019-02-03T03:13:16.708Z,65.50
2019-02-03T03:14:16.799Z,65.40
2019-02-03T03:15:16.883Z,66.60
2019-02-03T03:16:16.969Z,66.70
2019-02-03T03:17:17.057Z,61.10
2019-02-03T03:18:17.143Z,66.60
2019-02-03T03:19:17.235Z,67.30
2019-02-03T03:20:17.321Z,68.50
2019-02-03T03:21:17.408Z,70.60
2019-02-03T03:22:17.494Z,76.50
2019-02-03T03:23:17.587Z,68.40
2019-02-03T03:24:17.676Z,73.90
2019-02-03T03:25:17.759Z,69.70
2019-02-03T03:26:17.846Z,67.00
2019-02-03T03:27:17.935Z,67.50
2019-02-03T03:28:18.021Z,67.80
2019-02-03T03:29:18.108Z,65.80
2019-02-03T03:30:18.209Z,67.80
2019-02-03T03:31:18.310Z,71.10
2019-02-03T03:32:18.395Z,67.10
2019-02-03T03:33:18.483Z,66.80
2019-02-03T03:34:18.565Z,67.80
2019-02-03T03:35:18.655Z,66.30
2019-02-03T03:36:18.747Z,70.60
2019-02-03T03:37:18.834Z,69.10
2019-02-03T03:38:31.324Z,66.30
2019-02-03T03:39:19.003Z,66.40
2019-02-03T03:40:19.095Z,67.40
2019-02-03T03:41:19.185Z,70.60
2019-02-03T03:42:19.273Z,70.10
2019-02-03T03:43:19.359Z,71.90
2019-02-03T03:44:19.445Z,73.10
2019-02-03T03:45:19.533Z,70.10
2019-02-03T03:46:19.620Z,68.50
2019-02-03T03:47:19.710Z,73.90
2019-02-03T03:48:19.806Z,73.70
2019-02-03T03:49:19.885Z,71.40
2019-02-03T03:50:19.962Z,69.50
2019-02-03T03:51:20.049Z,65.70
2019-02-03T03:52:20.137Z,70.40
2019-02-03T03:53:20.221Z,71.50
2019-02-03T03:54:20.306Z,71.30
2019-02-03T03:55:20.393Z,68.60
2019-02-03T03:56:20.476Z,71.30
2019-02-03T03:57:20.563Z,68.00
2019-02-03T03:58:20.656Z,71.80
2019-02-03T03:59:20.740Z,70.30
2019-02-03T04:00:20.821Z,70.90
2019-02-03T04:01:20.912Z,68.30
2019-02-03T04:02:20.997Z,70.70
2019-02-03T04:03:21.086Z,70.10
2019-02-03T04:04:21.174Z,71.00
2019-02-03T04:05:21.261Z,69.10
2019-02-03T04:06:21.347Z,65.70
2019-02-03T04:07:21.438Z,69.40
2019-02-03T04:08:21.520Z,66.80
2019-02-03T04:09:21.596Z,71.40
2019-02-03T04:10:21.684Z,70.80
2019-02-03T04:11:21.772Z,70.80
2019-02-03T04:12:21.862Z,69.20
2019-02-03T04:13:21.947Z,68.30
2019-02-03T04:14:22.052Z,68.60
2019-02-03T04:15:22.106Z,64.00
2019-02-03T04:16:22.193Z,70.10
2019-02-03T04:17:22.284Z,69.90
2019-02-03T04:18:22.367Z,65.00
2019-02-03T04:19:22.456Z,71.30
2019-02-03T04:20:22.545Z,67.00
2019-02-03T04:21:22.634Z,63.80
2019-02-03T04:22:22.719Z,65.60
2019-02-03T04:23:22.806Z,69.50
2019-02-03T04:24:22.905Z,68.00
2019-02-03T04:25:22.982Z,69.20
2019-02-03T04:26:23.072Z,65.00
2019-02-03T04:27:23.154Z,62.10
2019-02-03T04:28:23.241Z,68.10
2019-02-03T04:29:23.329Z,63.40
2019-02-03T04:30:23.417Z,65.30
2019-02-03T04:31:23.504Z,65.20
2019-02-03T04:32:23.594Z,66.70
2019-02-03T04:33:23.678Z,63.70
2019-02-03T04:34:23.765Z,64.90
2019-02-03T04:35:23.994Z,62.20
2019-02-03T04:36:23.937Z,65.00
2019-02-03T04:37:24.023Z,64.50
2019-02-03T04:38:24.115Z,63.00
2019-02-03T04:39:24.207Z,60.20
2019-02-03T04:40:24.294Z,59.70
2019-02-03T04:41:24.387Z,62.50
2019-02-03T04:42:24.477Z,56.70
2019-02-03T04:43:24.554Z,58.30
2019-02-03T04:44:24.646Z,57.60
2019-02-03T04:45:24.739Z,61.60
2019-02-03T04:46:24.818Z,60.10
2019-02-03T04:47:24.905Z,61.00
2019-02-03T04:48:24.995Z,58.10
2019-02-03T04:49:25.089Z,58.20
2019-02-03T04:50:25.162Z,57.80
2019-02-03T04:51:25.251Z,63.00
2019-02-03T04:52:25.334Z,60.50
2019-02-03T04:53:25.422Z,59.50
2019-02-03T04:54:25.506Z,66.10
2019-02-03T04:55:25.593Z,59.80
2019-02-03T04:56:25.679Z,62.00
2019-02-03T04:57:25.764Z,60.70
2019-02-03T04:58:25.869Z,58.90
2019-02-03T04:59:25.944Z,58.40
2019-02-03T05:00:26.026Z,57.70
2019-02-03T05:01:26.108Z,56.30
2019-02-03T05:02:26.192Z,56.20
2019-02-03T05:03:26.280Z,54.20
2019-02-03T05:04:26.376Z,55.70
2019-02-03T05:05:26.452Z,51.60
2019-02-03T05:06:26.541Z,54.10
2019-02-03T05:07:26.628Z,50.90
2019-02-03T05:08:26.710Z,50.40
2019-02-03T05:09:26.796Z,53.80
2019-02-03T05:10:26.882Z,50.90
2019-02-03T05:11:26.971Z,52.40
2019-02-03T05:12:27.056Z,51.50
2019-02-03T05:13:27.143Z,51.90
2019-02-03T05:14:27.239Z,53.50
2019-02-03T05:15:27.309Z,55.20
2019-02-03T05:16:27.411Z,53.80
2019-02-03T05:17:27.488Z,51.40
2019-02-03T05:18:27.574Z,53.00
2019-02-03T05:19:27.662Z,56.50
2019-02-03T05:20:27.747Z,52.80
2019-02-03T05:21:27.827Z,53.40
2019-02-03T05:22:27.919Z,52.60
2019-02-03T05:23:28.011Z,55.30
2019-02-03T05:24:28.102Z,48.20
2019-02-03T05:25:28.189Z,53.80
2019-02-03T05:26:28.291Z,55.50
2019-02-03T05:27:28.361Z,52.00
2019-02-03T05:28:28.434Z,59.20
2019-02-03T05:29:28.515Z,54.10
2019-02-03T05:30:28.600Z,51.60
2019-02-03T05:31:28.691Z,52.60
2019-02-03T05:32:28.780Z,54.00
2019-02-03T05:33:28.865Z,53.70
2019-02-03T05:34:28.957Z,55.20
2019-02-03T05:35:29.036Z,52.70
2019-02-03T05:36:29.131Z,55.00
2019-02-03T05:37:29.207Z,53.50
2019-02-03T05:38:29.299Z,56.10
2019-02-03T05:39:29.386Z,53.50
2019-02-03T05:40:29.473Z,54.60
2019-02-03T05:41:29.560Z,57.70
2019-02-03T05:42:29.646Z,51.50
2019-02-03T05:43:29.728Z,56.80
2019-02-03T05:44:29.817Z,52.20
2019-02-03T05:45:29.906Z,56.80
2019-02-03T05:46:29.992Z,55.80
2019-02-03T05:47:30.079Z,49.70
2019-02-03T05:48:30.166Z,53.30
2019-02-03T05:49:30.248Z,53.40
2019-02-03T05:50:30.337Z,51.60
2019-02-03T05:51:30.441Z,51.30
2019-02-03T05:52:30.528Z,53.80
2019-02-03T05:53:30.618Z,56.90
2019-02-03T05:54:30.704Z,51.00
2019-02-03T05:55:30.793Z,52.20
2019-02-03T05:56:30.881Z,51.30
2019-02-03T05:57:30.971Z,52.10
2019-02-03T05:58:31.056Z,50.40
2019-02-03T05:59:31.142Z,50.80
2019-02-03T06:00:31.230Z,55.30
2019-02-03T06:01:31.319Z,53.00
2019-02-03T06:02:31.403Z,53.40
2019-02-03T06:03:31.492Z,53.70
2019-02-03T06:04:31.575Z,54.00
2019-02-03T06:05:31.668Z,54.40
2019-02-03T06:06:31.755Z,55.50
2019-02-03T06:07:31.843Z,55.70
2019-02-03T06:08:31.930Z,52.00
2019-02-03T06:09:36.633Z,53.50
2019-02-03T06:10:32.103Z,54.50
2019-02-03T06:11:32.189Z,51.80
2019-02-03T06:12:32.266Z,52.90
2019-02-03T06:13:32.371Z,51.20
2019-02-03T06:14:32.436Z,55.70
2019-02-03T06:15:32.521Z,49.50
2019-02-03T06:16:32.617Z,51.60
2019-02-03T06:17:32.698Z,50.90
2019-02-03T06:18:32.785Z,54.20
2019-02-03T06:19:32.874Z,52.60
2019-02-03T06:20:32.957Z,50.80
2019-02-03T06:21:33.043Z,52.10
2019-02-03T06:22:33.129Z,49.30
2019-02-03T06:23:33.212Z,48.30
2019-02-03T06:24:33.301Z,50.10
2019-02-03T06:25:33.387Z,51.20
2019-02-03T06:26:33.473Z,52.40
2019-02-03T06:27:33.564Z,52.50
2019-02-03T06:28:33.646Z,46.10
2019-02-03T06:29:33.745Z,52.50
2019-02-03T06:30:33.819Z,49.30
2019-02-03T06:31:33.904Z,54.00
2019-02-03T06:32:33.990Z,52.90
2019-02-03T06:33:34.082Z,52.30
2019-02-03T06:34:34.169Z,51.40
2019-02-03T06:35:34.253Z,51.00
2019-02-03T06:36:34.343Z,50.30
2019-02-03T06:37:34.424Z,47.50
2019-02-03T06:38:34.510Z,50.40
2019-02-03T06:39:34.597Z,47.70
2019-02-03T06:40:34.683Z,54.30
2019-02-03T06:41:34.770Z,50.20
2019-02-03T06:42:34.856Z,49.10
2019-02-03T06:43:34.943Z,50.50
2019-02-03T06:44:35.032Z,50.70
2019-02-03T06:45:35.117Z,50.70
2019-02-03T06:46:35.210Z,51.60
2019-02-03T06:47:35.295Z,51.70
2019-02-03T06:48:35.383Z,50.60
2019-02-03T06:49:35.472Z,50.40
2019-02-03T06:50:35.558Z,51.90
2019-02-03T06:51:35.643Z,49.30
2019-02-03T06:52:35.731Z,48.70
2019-02-03T06:53:35.821Z,46.70
2019-02-03T06:54:35.911Z,46.60
2019-02-03T06:55:35.998Z,44.80
2019-02-03T06:56:36.092Z,46.50
2019-02-03T06:57:36.187Z,45.80
2019-02-03T06:58:36.266Z,43.90
2019-02-03T06:59:36.374Z,42.50
2019-02-03T07:00:36.444Z,41.80
2019-02-03T07:01:36.526Z,48.60
2019-02-03T07:02:36.613Z,44.40
2019-02-03T07:03:36.700Z,44.10
2019-02-03T07:04:36.789Z,48.30
2019-02-03T07:05:36.876Z,43.50
2019-02-03T07:06:36.962Z,43.80
2019-02-03T07:07:37.047Z,43.60
2019-02-03T07:08:37.136Z,43.20
2019-02-03T07:09:37.229Z,43.00
2019-02-03T07:10:37.312Z,42.80
2019-02-03T07:11:37.398Z,40.30
2019-02-03T07:12:37.484Z,40.30
2019-02-03T07:13:37.571Z,43.30
2019-02-03T07:14:37.657Z,46.90
2019-02-03T07:15:37.747Z,60.30
2019-02-03T07:16:41.019Z,45.20
2019-02-03T07:17:37.921Z,42.30
2019-02-03T07:18:38.008Z,47.90
2019-02-03T07:19:38.126Z,38.30
2019-02-03T07:20:38.217Z,42.20
2019-02-03T07:21:38.304Z,41.40
2019-02-03T07:22:38.393Z,46.00
2019-02-03T07:23:38.477Z,42.50
2019-02-03T07:24:38.564Z,38.70
2019-02-03T07:25:38.653Z,41.70
2019-02-03T07:26:38.738Z,38.70
2019-02-03T07:27:38.853Z,37.70
2019-02-03T07:28:38.911Z,43.10
2019-02-03T07:29:39.018Z,40.20
2019-02-03T07:30:39.099Z,34.60
2019-02-03T07:31:39.189Z,35.90
2019-02-03T07:32:39.276Z,37.90
2019-02-03T07:33:39.364Z,37.80
2019-02-03T07:34:39.450Z,38.80
2019-02-03T07:35:39.532Z,40.50
2019-02-03T07:36:39.621Z,37.70
2019-02-03T07:37:39.710Z,39.80
2019-02-03T07:38:39.799Z,40.20
2019-02-03T07:39:39.887Z,37.00
2019-02-03T07:40:39.970Z,37.40
2019-02-03T07:41:40.058Z,35.70
2019-02-03T07:42:40.145Z,36.50
2019-02-03T07:43:40.230Z,39.10
2019-02-03T07:44:40.321Z,37.80
2019-02-03T07:45:40.405Z,33.50
2019-02-03T07:46:40.494Z,36.30
2019-02-03T07:47:40.583Z,33.50
2019-02-03T07:48:40.692Z,33.50
2019-02-03T07:49:40.751Z,37.10
2019-02-03T07:50:40.841Z,32.50
2019-02-03T07:51:40.929Z,35.50
2019-02-03T07:52:41.009Z,33.50
2019-02-03T07:53:41.104Z,32.90
2019-02-03T07:54:41.186Z,34.60
2019-02-03T07:55:41.272Z,36.50
2019-02-03T07:56:41.357Z,34.50
2019-02-03T07:57:41.444Z,30.60
2019-02-03T07:58:41.542Z,29.60
2019-02-03T07:59:41.626Z,31.30
2019-02-03T08:00:41.766Z,31.60
2019-02-03T08:01:41.790Z,29.70
2019-02-03T08:02:41.875Z,30.30
2019-02-03T08:03:41.960Z,31.10
2019-02-03T08:04:42.046Z,30.60
2019-02-03T08:05:42.132Z,30.80
2019-02-03T08:06:42.216Z,31.90
2019-02-03T08:07:42.305Z,33.90
2019-02-03T08:08:42.391Z,33.60
2019-02-03T08:09:42.477Z,32.10
2019-02-03T08:10:42.565Z,34.40
2019-02-03T08:11:42.650Z,33.70
2019-02-03T08:12:42.727Z,30.80
2019-02-03T08:13:42.823Z,35.40
2019-02-03T08:14:42.907Z,34.20
2019-02-03T08:15:42.997Z,34.80
2019-02-03T08:16:43.082Z,32.10
2019-02-03T08:17:43.173Z,33.20
2019-02-03T08:18:43.258Z,32.70
2019-02-03T08:19:43.342Z,33.80
2019-02-03T08:20:43.429Z,32.30
2019-02-03T08:21:43.516Z,32.80
2019-02-03T08:22:43.604Z,34.90
2019-02-03T08:23:43.691Z,34.70
2019-02-03T08:24:43.776Z,32.10
2019-02-03T08:25:43.871Z,37.70
2019-02-03T08:26:43.961Z,35.80
2019-02-03T08:27:44.043Z,34.10
2019-02-03T08:28:44.134Z,37.20
2019-02-03T08:29:44.218Z,36.80
2019-02-03T08:30:44.310Z,34.10
2019-02-03T08:31:44.397Z,35.20
2019-02-03T08:32:44.484Z,35.00
2019-02-03T08:33:44.574Z,38.40
2019-02-03T08:34:44.658Z,37.30
2019-02-03T08:35:44.749Z,39.20
2019-02-03T08:36:44.854Z,36.50
2019-02-03T08:37:44.940Z,36.60
2019-02-03T08:38:45.027Z,36.20
2019-02-03T08:39:45.114Z,37.00
2019-02-03T08:40:45.202Z,39.60
2019-02-03T08:41:45.285Z,36.10
2019-02-03T08:42:45.373Z,38.70
2019-02-03T08:43:45.460Z,37.60
2019-02-03T08:44:45.551Z,38.80
2019-02-03T08:45:45.639Z,35.60
2019-02-03T08:46:45.727Z,37.50
2019-02-03T08:47:45.812Z,38.40
2019-02-03T08:48:45.899Z,38.80
2019-02-03T08:49:45.991Z,38.40
2019-02-03T08:50:46.078Z,38.70
2019-02-03T08:51:46.165Z,40.20
2019-02-03T08:52:46.256Z,38.60
2019-02-03T08:53:46.335Z,39.70
2019-02-03T08:54:57.669Z,37.60
2019-02-03T08:55:46.553Z,40.70
2019-02-03T08:56:46.637Z,37.30
2019-02-03T08:57:46.731Z,42.50
2019-02-03T08:58:46.814Z,39.10
2019-02-03T08:59:46.900Z,39.60
2019-02-03T09:00:46.987Z,39.70
2019-02-03T09:01:47.094Z,42.00
2019-02-03T09:02:47.184Z,41.80
2019-02-03T09:03:47.288Z,38.30
2019-02-03T09:04:47.365Z,43.90
2019-02-03T09:05:47.450Z,41.20
2019-02-03T09:06:47.556Z,40.80
2019-02-03T09:07:47.641Z,40.30
2019-02-03T09:08:47.730Z,37.80
2019-02-03T09:09:47.816Z,41.40
2019-02-03T09:10:48.908Z,39.50
2019-02-03T09:11:47.981Z,43.40
2019-02-03T09:12:48.080Z,41.20
2019-02-03T09:13:48.170Z,52.50
2019-02-03T09:14:48.247Z,63.60
2019-02-03T09:15:48.443Z,85.50
2019-02-03T09:16:48.504Z,38.10
2019-02-03T09:17:48.531Z,39.30
2019-02-03T09:18:48.621Z,39.10
2019-02-03T09:19:48.832Z,38.80
2019-02-03T09:20:48.795Z,35.80
2019-02-03T09:21:48.882Z,37.20
2019-02-03T09:22:48.973Z,37.90
2019-02-03T09:23:49.064Z,37.80
2019-02-03T09:24:49.150Z,39.70
2019-02-03T09:25:49.236Z,37.40
2019-02-03T09:26:49.342Z,37.00
2019-02-03T09:27:49.426Z,37.80
2019-02-03T09:28:49.511Z,37.00
2019-02-03T09:29:49.602Z,39.00
2019-02-03T09:30:49.682Z,37.80
2019-02-03T09:31:49.769Z,36.60
2019-02-03T09:32:49.860Z,35.80
2019-02-03T09:33:49.950Z,36.20
2019-02-03T09:34:50.033Z,34.20
2019-02-03T09:35:50.118Z,32.30
2019-02-03T09:36:50.209Z,37.10
2019-02-03T09:37:50.295Z,32.00
2019-02-03T09:38:50.380Z,35.00
2019-02-03T09:39:50.464Z,31.70
2019-02-03T09:40:59.701Z,32.80
2019-02-03T09:41:50.644Z,31.90
2019-02-03T09:42:50.751Z,31.30
2019-02-03T09:43:50.839Z,31.30
2019-02-03T09:44:50.931Z,29.30
2019-02-03T09:45:51.018Z,28.80
2019-02-03T09:46:51.106Z,27.60
2019-02-03T09:47:51.192Z,28.30
2019-02-03T09:48:51.281Z,26.10
2019-02-03T09:49:51.366Z,29.50
2019-02-03T09:50:51.461Z,30.50
2019-02-03T09:51:51.546Z,26.10
2019-02-03T09:52:51.633Z,27.40
2019-02-03T09:53:51.719Z,27.00
2019-02-03T09:54:51.804Z,25.00
2019-02-03T09:55:51.895Z,27.70
2019-02-03T09:56:51.983Z,27.50
2019-02-03T09:57:52.096Z,30.40
2019-02-03T09:58:52.187Z,28.10
2019-02-03T09:59:52.279Z,26.20
2019-02-03T10:00:52.361Z,30.00
2019-02-03T10:01:52.446Z,28.80
2019-02-03T10:02:52.529Z,31.60
2019-02-03T10:03:52.615Z,29.50
2019-02-03T10:04:52.709Z,29.70
2019-02-03T10:05:52.795Z,30.20
2019-02-03T10:06:52.881Z,26.80
2019-02-03T10:07:52.967Z,27.00
2019-02-03T10:08:53.055Z,26.30
2019-02-03T10:09:53.141Z,27.00
2019-02-03T10:10:53.232Z,26.70
2019-02-03T10:11:53.325Z,25.20
2019-02-03T10:12:53.412Z,27.00
2019-02-03T10:13:53.503Z,25.70
2019-02-03T10:14:53.591Z,29.40
2019-02-03T10:15:53.685Z,23.80
2019-02-03T10:16:53.760Z,25.90
2019-02-03T10:17:53.854Z,24.30
2019-02-03T10:18:53.942Z,26.60
2019-02-03T10:19:54.026Z,25.10
2019-02-03T10:20:54.125Z,25.50
2019-02-03T10:21:54.209Z,24.30
2019-02-03T10:22:54.290Z,24.90
2019-02-03T10:23:54.379Z,24.00
2019-02-03T10:24:54.468Z,24.30
2019-02-03T10:25:55.450Z,23.40
2019-02-03T10:26:54.766Z,23.80
2019-02-03T10:27:54.738Z,24.50
2019-02-03T10:28:54.844Z,21.40
2019-02-03T10:29:55.032Z,24.80
2019-02-03T10:30:55.020Z,23.90
2019-02-03T10:31:55.107Z,22.60
2019-02-03T10:32:55.221Z,23.10
2019-02-03T10:33:55.284Z,25.50
2019-02-03T10:34:55.373Z,23.70
2019-02-03T10:35:55.465Z,22.20
2019-02-03T10:36:55.550Z,23.40
2019-02-03T10:37:55.642Z,21.90
2019-02-03T10:38:55.728Z,24.10
2019-02-03T10:39:55.817Z,23.20
2019-02-03T10:40:55.912Z,21.80
2019-02-03T10:41:55.994Z,24.50
2019-02-03T10:42:56.101Z,22.90
2019-02-03T10:43:56.519Z,22.30
2019-02-03T10:44:56.282Z,21.90
2019-02-03T10:45:56.370Z,23.60
2019-02-03T10:46:56.579Z,23.50
2019-02-03T10:47:56.548Z,21.80
2019-02-03T10:48:56.634Z,19.50
2019-02-03T10:49:56.724Z,20.10
2019-02-03T10:50:56.816Z,20.90
2019-02-03T10:51:56.901Z,23.40
2019-02-03T10:52:57.001Z,22.50
2019-02-03T10:53:57.095Z,22.40
2019-02-03T10:54:57.180Z,23.20
2019-02-03T10:55:57.268Z,21.40
2019-02-03T10:56:57.356Z,25.40
2019-02-03T10:57:57.447Z,23.00
2019-02-03T10:58:57.536Z,24.70
2019-02-03T10:59:57.621Z,28.30
2019-02-03T11:00:57.710Z,23.30
2019-02-03T11:01:57.800Z,24.10
2019-02-03T11:02:57.887Z,22.70
2019-02-03T11:03:57.974Z,27.70
2019-02-03T11:04:58.061Z,26.90
2019-02-03T11:05:59.500Z,29.60
2019-02-03T11:06:58.240Z,25.20
2019-02-03T11:07:58.326Z,28.20
2019-02-03T11:08:58.415Z,23.00
2019-02-03T11:09:58.503Z,26.30
2019-02-03T11:10:58.591Z,25.10
2019-02-03T11:11:58.682Z,24.70
2019-02-03T11:12:58.777Z,26.90
2019-02-03T11:13:58.858Z,26.60
2019-02-03T11:14:58.946Z,24.40
2019-02-03T11:15:59.035Z,26.30
2019-02-03T11:16:59.124Z,26.50
2019-02-03T11:17:59.211Z,25.40
2019-02-03T11:18:59.308Z,26.10
2019-02-03T11:19:59.392Z,24.90
2019-02-03T11:20:59.481Z,27.10
2019-02-03T11:21:59.570Z,26.60
2019-02-03T11:22:59.660Z,28.20
2019-02-03T11:23:59.747Z,28.00
2019-02-03T11:24:59.833Z,27.60
2019-02-03T11:26:00.305Z,26.70
2019-02-03T11:27:00.001Z,23.90
2019-02-03T11:28:00.088Z,23.70
2019-02-03T11:29:00.172Z,23.60
2019-02-03T11:30:00.325Z,24.50
2019-02-03T11:31:00.347Z,26.60
2019-02-03T11:32:00.435Z,27.10
2019-02-03T11:33:06.941Z,24.30
2019-02-03T11:34:00.612Z,23.20
2019-02-03T11:35:00.701Z,24.00
2019-02-03T11:36:00.791Z,24.00
2019-02-03T11:37:00.881Z,22.10
2019-02-03T11:38:00.967Z,23.70
2019-02-03T11:39:01.055Z,22.20
2019-02-03T11:40:01.144Z,26.50
2019-02-03T11:41:01.237Z,26.80
2019-02-03T11:42:01.317Z,23.50
2019-02-03T11:43:01.406Z,21.50
2019-02-03T11:44:01.489Z,22.80
2019-02-03T11:45:01.580Z,21.00
2019-02-03T11:46:01.667Z,21.10
2019-02-03T11:47:01.753Z,23.00
2019-02-03T11:48:01.851Z,23.30
2019-02-03T11:49:01.932Z,22.60
2019-02-03T11:50:02.014Z,22.30
2019-02-03T11:51:02.099Z,27.10
2019-02-03T11:52:02.188Z,24.20
2019-02-03T11:53:02.278Z,23.00
2019-02-03T11:54:02.367Z,21.90
2019-02-03T11:55:02.454Z,20.30
2019-02-03T11:56:02.541Z,20.50
2019-02-03T11:57:02.632Z,20.40
2019-02-03T11:58:02.720Z,20.90
2019-02-03T11:59:02.809Z,19.80
2019-02-03T12:00:02.901Z,19.40
2019-02-03T12:01:02.982Z,19.40
2019-02-03T12:02:03.074Z,20.20
2019-02-03T12:03:03.154Z,21.80
2019-02-03T12:04:03.252Z,20.60
2019-02-03T12:05:03.349Z,19.70
2019-02-03T12:06:03.451Z,18.80
2019-02-03T12:07:03.527Z,21.50
2019-02-03T12:08:03.617Z,18.20
2019-02-03T12:09:03.710Z,18.20
2019-02-03T12:10:03.807Z,19.40
2019-02-03T12:11:03.960Z,18.30
2019-02-03T12:12:03.989Z,19.50
2019-02-03T12:13:04.079Z,18.90
2019-02-03T12:14:04.400Z,20.60
2019-02-03T12:15:04.251Z,18.70
2019-02-03T12:16:04.382Z,18.40
2019-02-03T12:17:04.490Z,19.20
2019-02-03T12:18:04.574Z,20.70
2019-02-03T12:19:04.665Z,20.40
2019-02-03T12:20:04.752Z,20.00
2019-02-03T12:21:04.843Z,22.20
2019-02-03T12:22:04.933Z,19.00
2019-02-03T12:23:05.026Z,19.80
2019-02-03T12:24:05.183Z,20.20
2019-02-03T12:25:05.243Z,19.40
2019-02-03T12:26:06.925Z,21.10
2019-02-03T12:27:05.419Z,19.30
2019-02-03T12:28:05.538Z,19.40
2019-02-03T12:29:05.590Z,20.40
2019-02-03T12:30:05.678Z,22.20
2019-02-03T12:31:05.779Z,20.60
2019-02-03T12:32:05.927Z,19.90
2019-02-03T12:33:06.042Z,21.20
2019-02-03T12:34:06.220Z,19.00
2019-02-03T12:35:07.092Z,20.00
2019-02-03T12:36:07.100Z,18.40
2019-02-03T12:37:06.444Z,21.40
2019-02-03T12:38:06.547Z,21.60
2019-02-03T12:39:06.647Z,22.20
2019-02-03T12:40:06.717Z,19.50
2019-02-03T12:41:06.799Z,21.30
2019-02-03T12:42:13.020Z,20.80
2019-02-03T12:43:06.992Z,19.60
2019-02-03T12:44:07.077Z,19.60
2019-02-03T12:45:07.169Z,21.70
2019-02-03T12:46:07.262Z,22.10
2019-02-03T12:47:07.350Z,21.20
2019-02-03T12:48:07.443Z,20.40
2019-02-03T12:49:07.604Z,20.60
2019-02-03T12:50:07.665Z,19.20
2019-02-03T12:51:07.755Z,19.20
2019-02-03T12:52:07.846Z,20.00
2019-02-03T12:53:07.931Z,18.10
2019-02-03T12:54:08.020Z,18.90